Time;durP1;ratioP1;P1;durP2;ratioP2;P2;SDS_P1;SDS_P2;PMS_P1;PMS_P2;Temp;Humidity;BMP_temperature;BMP_pressure;BME280_temperature;BME280_humidity;BME280_pressure;Samples;Min_cycle;Max_cycle;Signal;HPM_P1;HPM_P2
2022/03/01 00:01:27;;;;;;;15.68;8.40;;;;;;;2.99;54.45;102771.25;4992875;28;20055;-70
2022/03/01 00:03:54;;;;;;;13.50;8.43;;;;;;;2.97;54.48;102772.03;4991256;28;20046;-70
2022/03/01 00:06:21;;;;;;;14.95;8.60;;;;;;;2.93;54.52;102766.75;4986900;28;20052;-70
2022/03/01 00:08:49;;;;;;;18.02;8.30;;;;;;;2.92;54.64;102777.09;4986953;28;20078;-70
2022/03/01 00:11:15;;;;;;;15.18;8.57;;;;;;;2.91;54.81;102780.53;4988521;28;20537;-69
2022/03/01 00:13:42;;;;;;;16.92;8.77;;;;;;;2.89;54.89;102777.88;4983736;28;20043;-71
2022/03/01 00:16:09;;;;;;;18.40;9.20;;;;;;;2.88;54.87;102772.63;4989405;28;20042;-71
2022/03/01 00:18:37;;;;;;;14.85;7.78;;;;;;;2.84;54.86;102769.06;4980288;28;20134;-72
2022/03/01 00:21:06;;;;;;;13.80;8.00;;;;;;;2.81;54.78;102774.16;4983570;28;20508;-72
2022/03/01 00:23:34;;;;;;;14.48;8.75;;;;;;;2.78;55.02;102776.63;4986427;28;20054;-68
2022/03/01 00:26:01;;;;;;;17.63;9.15;;;;;;;2.76;55.15;102773.09;4987052;28;20140;-69
2022/03/01 00:28:28;;;;;;;17.33;9.13;;;;;;;2.73;55.05;102779.09;4978572;28;20043;-69
2022/03/01 00:30:56;;;;;;;17.65;8.82;;;;;;;2.71;55.34;102780.75;4992798;28;20058;-69
2022/03/01 00:33:23;;;;;;;15.30;8.90;;;;;;;2.69;55.17;102776.34;4991675;28;20058;-68
2022/03/01 00:35:51;;;;;;;16.15;8.48;;;;;;;2.66;55.09;102781.44;4989423;28;20057;-67
2022/03/01 00:38:18;;;;;;;18.55;8.63;;;;;;;2.63;55.36;102782.22;4988744;28;20050;-68
2022/03/01 00:40:45;;;;;;;17.90;9.15;;;;;;;2.58;55.29;102782.06;4981309;28;20043;-68
2022/03/01 00:43:13;;;;;;;16.52;8.82;;;;;;;2.54;55.53;102776.72;4989778;28;20043;-69
2022/03/01 00:45:40;;;;;;;15.18;8.50;;;;;;;2.49;55.53;102777.41;4990775;28;20047;-69
2022/03/01 00:48:08;;;;;;;18.88;9.00;;;;;;;2.44;55.75;102779.00;4994923;28;20122;-68
2022/03/01 00:50:35;;;;;;;16.90;8.75;;;;;;;2.44;55.75;102781.59;4995997;28;20129;-69
2022/03/01 00:53:05;;;;;;;16.08;9.80;;;;;;;2.43;55.82;102778.97;4992205;28;20496;-66
2022/03/01 00:55:33;;;;;;;16.17;9.05;;;;;;;2.42;56.01;102765.03;4993824;28;20046;-67
2022/03/01 00:58:01;;;;;;;14.93;8.48;;;;;;;2.43;56.05;102773.75;4994246;28;20047;-68
2022/03/01 01:00:30;;;;;;;15.80;8.27;;;;;;;2.41;56.23;102773.69;4984257;28;20054;-67
2022/03/01 01:02:57;;;;;;;16.08;8.77;;;;;;;2.41;56.21;102765.88;4989660;28;20789;-67
2022/03/01 01:05:25;;;;;;;15.85;8.68;;;;;;;2.39;56.24;102780.53;4982580;28;20610;-67
2022/03/01 01:07:53;;;;;;;14.98;8.93;;;;;;;2.38;56.59;102778.81;4988907;28;20161;-67
2022/03/01 01:10:21;;;;;;;14.55;8.48;;;;;;;2.38;56.40;102770.09;4985918;28;20047;-66
2022/03/01 01:12:48;;;;;;;16.35;9.30;;;;;;;2.38;56.54;102768.38;4985443;28;20042;-66
2022/03/01 01:15:18;;;;;;;18.50;8.68;;;;;;;2.38;56.82;102764.88;4991154;28;20035;-67
2022/03/01 01:17:45;;;;;;;14.82;8.65;;;;;;;2.36;56.72;102762.22;4989078;28;20490;-67
2022/03/01 01:20:15;;;;;;;16.05;9.20;;;;;;;2.33;57.01;102757.81;4984246;28;20054;-67
2022/03/01 01:22:43;;;;;;;15.30;8.57;;;;;;;2.31;56.85;102755.97;4991437;28;20042;-67
2022/03/01 01:25:16;;;;;;;15.48;9.07;;;;;;;2.25;56.99;102756.63;4990755;28;20043;-67
2022/03/01 01:27:52;;;;;;;17.67;9.05;;;;;;;2.27;57.12;102759.31;4986818;28;20042;-67
2022/03/01 01:30:25;;;;;;;18.83;9.18;;;;;;;2.26;57.09;102753.22;4984922;28;20053;-66
2022/03/01 01:32:53;;;;;;;15.75;9.35;;;;;;;2.25;57.02;102754.03;4984765;28;20042;-68
2022/03/01 01:35:26;;;;;;;16.25;8.98;;;;;;;2.26;56.98;102750.59;4984154;28;20047;-67
2022/03/01 01:37:55;;;;;;;15.93;9.07;;;;;;;2.27;57.05;102751.50;4994821;28;20047;-67
2022/03/01 01:40:26;;;;;;;15.98;8.40;;;;;;;2.26;56.88;102748.00;5002324;28;20047;-68
2022/03/01 01:42:54;;;;;;;17.38;8.82;;;;;;;2.27;56.97;102757.59;4987011;28;20118;-67
2022/03/01 01:45:24;;;;;;;14.93;8.43;;;;;;;2.29;57.12;102757.66;5001590;28;20047;-69
2022/03/01 01:47:53;;;;;;;16.77;9.13;;;;;;;2.29;56.92;102750.72;4998707;28;20042;-68
2022/03/01 01:50:23;;;;;;;14.43;8.60;;;;;;;2.31;56.94;102745.56;4986767;28;20102;-71
2022/03/01 01:52:53;;;;;;;21.17;9.77;;;;;;;2.34;57.00;102750.88;4992751;28;20049;-73
2022/03/01 01:55:24;;;;;;;19.17;9.25;;;;;;;2.37;56.93;102743.19;4995486;28;20054;-72
2022/03/01 01:57:57;;;;;;;17.38;9.52;;;;;;;2.41;57.07;102749.38;4998108;28;20054;-72
2022/03/01 02:00:26;;;;;;;16.35;9.15;;;;;;;2.44;56.98;102745.16;4994421;28;20049;-71
2022/03/01 02:02:53;;;;;;;14.00;8.82;;;;;;;2.48;56.79;102744.44;5002476;28;20046;-70
2022/03/01 02:05:20;;;;;;;18.48;9.60;;;;;;;2.53;56.85;102751.50;5002170;28;20050;-71
2022/03/01 02:07:49;;;;;;;14.35;8.40;;;;;;;2.57;56.85;102748.19;4994941;28;20106;-71
2022/03/01 02:10:17;;;;;;;16.90;9.38;;;;;;;2.60;56.66;102743.06;4991971;28;20049;-70
2022/03/01 02:12:46;;;;;;;15.18;9.20;;;;;;;2.62;56.55;102746.59;4993627;28;20043;-70
2022/03/01 02:15:15;;;;;;;14.55;9.00;;;;;;;2.64;56.84;102751.03;4989183;28;20055;-70
2022/03/01 02:17:43;;;;;;;17.23;9.02;;;;;;;2.65;56.83;102749.31;4984916;28;20047;-70
2022/03/01 02:20:13;;;;;;;13.13;8.20;;;;;;;2.66;56.77;102744.97;4982640;28;20594;-70
2022/03/01 02:22:44;;;;;;;14.10;8.63;;;;;;;2.62;56.55;102749.19;4984200;28;20219;-72
2022/03/01 02:25:12;;;;;;;14.10;9.15;;;;;;;2.60;56.56;102750.88;4982072;28;20139;-71
2022/03/01 02:27:39;;;;;;;17.08;9.40;;;;;;;2.56;56.69;102752.47;4992969;28;20062;-71
2022/03/01 02:30:09;;;;;;;19.77;8.77;;;;;;;2.52;56.68;102755.84;4991844;28;20105;-70
2022/03/01 02:32:40;;;;;;;14.73;8.60;;;;;;;2.46;56.85;102753.91;4989745;28;20883;-70
2022/03/01 02:35:11;;;;;;;13.88;8.98;;;;;;;2.42;56.77;102756.34;4998636;28;20043;-67
2022/03/01 02:37:39;;;;;;;16.05;9.35;;;;;;;2.36;56.87;102751.81;4983510;28;20554;-67
2022/03/01 02:40:08;;;;;;;15.85;9.20;;;;;;;2.32;57.11;102763.84;4993728;28;20035;-67
2022/03/01 02:42:36;;;;;;;16.40;8.90;;;;;;;2.28;57.00;102755.88;4992004;28;20101;-68
2022/03/01 02:45:08;;;;;;;14.25;8.82;;;;;;;2.21;57.19;102752.19;4995663;28;20169;-67
2022/03/01 02:47:36;;;;;;;15.55;9.13;;;;;;;2.19;57.52;102750.34;4990979;28;20053;-68
2022/03/01 02:50:06;;;;;;;16.90;9.27;;;;;;;2.11;57.42;102743.16;5001823;28;20031;-68
2022/03/01 02:52:34;;;;;;;15.52;9.43;;;;;;;2.05;57.70;102745.53;4993916;28;20133;-70
2022/03/01 02:55:03;;;;;;;16.05;9.27;;;;;;;2.01;57.91;102748.84;4996372;28;20038;-70
2022/03/01 02:57:31;;;;;;;16.80;9.32;;;;;;;1.99;58.07;102747.91;4994163;28;20769;-70
2022/03/01 02:59:58;;;;;;;17.13;9.60;;;;;;;1.92;58.14;102745.94;4992195;28;20571;-71
2022/03/01 03:02:25;;;;;;;18.58;10.20;;;;;;;1.86;58.37;102743.97;4997117;28;20050;-71
2022/03/01 03:04:52;;;;;;;19.20;10.15;;;;;;;1.82;58.37;102745.59;4989816;28;20050;-70
2022/03/01 03:07:19;;;;;;;15.13;9.00;;;;;;;1.78;58.56;102742.81;4996404;28;20062;-67
2022/03/01 03:09:46;;;;;;;15.82;9.35;;;;;;;1.76;58.57;102747.06;5001684;28;20462;-67
2022/03/01 03:12:14;;;;;;;15.93;9.35;;;;;;;1.71;58.98;102733.91;4990426;28;20053;-67
2022/03/01 03:14:43;;;;;;;17.30;9.63;;;;;;;1.66;58.89;102727.66;4991799;28;20039;-68
2022/03/01 03:17:10;;;;;;;15.95;9.30;;;;;;;1.60;59.21;102730.94;4997111;28;20415;-68
2022/03/01 03:19:37;;;;;;;22.85;9.43;;;;;;;1.52;59.15;102729.75;4990143;28;20046;-73
2022/03/01 03:22:05;;;;;;;16.02;9.43;;;;;;;1.44;59.69;102729.47;4989150;28;20113;-70
2022/03/01 03:24:32;;;;;;;13.80;8.35;;;;;;;1.35;59.88;102727.38;4988563;28;20045;-72
2022/03/01 03:26:59;;;;;;;16.08;9.07;;;;;;;1.28;59.85;102737.47;4990315;28;20432;-73
2022/03/01 03:29:27;;;;;;;15.95;9.50;;;;;;;1.19;60.35;102731.09;4990970;28;20493;-72
2022/03/01 03:31:57;;;;;;;17.55;9.48;;;;;;;1.12;60.08;102725.63;4995696;28;20050;-69
2022/03/01 03:34:25;;;;;;;16.17;9.07;;;;;;;1.06;60.00;102723.69;4996689;28;20039;-70
2022/03/01 03:36:53;;;;;;;14.75;9.10;;;;;;;1.00;60.43;102721.72;4991392;28;20420;-69
2022/03/01 03:39:21;;;;;;;18.58;10.15;;;;;;;0.96;60.66;102716.34;4987143;28;20071;-73
2022/03/01 03:41:51;;;;;;;17.35;9.43;;;;;;;0.94;60.93;102721.47;4994400;28;20047;-71
2022/03/01 03:44:18;;;;;;;18.50;9.23;;;;;;;0.92;61.37;102723.09;4983842;28;20381;-70
2022/03/01 03:46:47;;;;;;;17.27;9.57;;;;;;;0.88;61.12;102726.44;4993198;28;20133;-70
2022/03/01 03:49:14;;;;;;;17.38;9.35;;;;;;;0.85;61.39;102732.41;4986232;28;20046;-71
2022/03/01 03:51:42;;;;;;;18.10;9.50;;;;;;;0.83;61.37;102718.44;4998590;28;20093;-70
2022/03/01 03:54:09;;;;;;;15.13;9.25;;;;;;;0.84;61.37;102724.53;4992405;28;20054;-73
2022/03/01 03:56:36;;;;;;;14.50;8.80;;;;;;;0.84;61.27;102730.63;4984194;28;20192;-70
2022/03/01 03:59:07;;;;;;;14.18;9.02;;;;;;;0.84;61.34;102721.91;4991095;28;20050;-71
2022/03/01 04:01:34;;;;;;;14.65;8.65;;;;;;;0.83;61.71;102715.84;4997123;28;20050;-70
2022/03/01 04:04:02;;;;;;;17.10;9.60;;;;;;;0.81;61.77;102721.81;4991863;28;20053;-71
2022/03/01 04:06:30;;;;;;;14.07;8.90;;;;;;;0.77;61.70;102724.28;4995349;28;20057;-70
2022/03/01 04:08:58;;;;;;;16.55;9.10;;;;;;;0.77;62.01;102721.69;4990943;28;20047;-71
2022/03/01 04:11:25;;;;;;;18.38;9.88;;;;;;;0.78;62.08;102725.16;4991007;28;20050;-68
2022/03/01 04:13:53;;;;;;;17.83;8.95;;;;;;;0.80;62.00;102717.44;4995304;28;20050;-68
2022/03/01 04:16:20;;;;;;;16.35;9.15;;;;;;;0.81;62.04;102721.81;4997407;28;20058;-69
2022/03/01 04:18:47;;;;;;;19.52;10.18;;;;;;;0.84;62.34;102717.63;4988831;28;20047;-69
2022/03/01 04:21:15;;;;;;;18.38;9.75;;;;;;;0.89;62.08;102725.59;5004563;28;20529;-71
2022/03/01 04:23:42;;;;;;;17.45;9.85;;;;;;;0.93;61.95;102725.78;4995647;28;20035;-69
2022/03/01 04:26:13;;;;;;;16.90;9.77;;;;;;;0.95;62.05;102723.25;4987604;28;20067;-68
2022/03/01 04:28:40;;;;;;;20.17;10.35;;;;;;;0.98;62.04;102730.25;4987123;28;20070;-68
2022/03/01 04:31:08;;;;;;;16.67;10.02;;;;;;;1.02;61.77;102726.97;4981234;28;20219;-69
2022/03/01 04:33:36;;;;;;;15.90;9.05;;;;;;;1.04;62.12;102728.78;4976266;28;20090;-71
2022/03/01 04:36:07;;;;;;;19.48;9.85;;;;;;;1.05;61.86;102730.56;4991058;28;20480;-71
2022/03/01 04:38:35;;;;;;;17.85;9.75;;;;;;;1.07;62.03;102730.63;4998771;28;20050;-71
2022/03/01 04:41:03;;;;;;;22.48;10.15;;;;;;;1.07;62.12;102728.03;4992820;28;20039;-71
2022/03/01 04:43:30;;;;;;;19.17;10.30;;;;;;;1.06;62.10;102728.88;4989271;28;20047;-73
2022/03/01 04:45:58;;;;;;;17.45;10.45;;;;;;;1.05;62.18;102727.09;4992246;28;20046;-72
2022/03/01 04:48:25;;;;;;;17.45;9.77;;;;;;;1.05;62.27;102730.56;5008723;28;20046;-73
2022/03/01 04:50:53;;;;;;;17.77;10.02;;;;;;;1.02;62.25;102725.25;4985991;28;20038;-71
2022/03/01 04:53:20;;;;;;;19.85;10.68;;;;;;;0.99;62.28;102727.75;4988547;28;20047;-71
2022/03/01 04:55:47;;;;;;;20.17;10.48;;;;;;;0.96;62.17;102726.75;5003120;28;20043;-71
2022/03/01 04:58:18;;;;;;;17.98;10.05;;;;;;;0.96;62.34;102729.34;4992283;28;20108;-72
2022/03/01 05:00:45;;;;;;;17.55;10.25;;;;;;;0.95;62.52;102725.84;4975554;28;20511;-72
2022/03/01 05:03:13;;;;;;;17.20;10.27;;;;;;;0.95;62.34;102732.75;4982066;28;20058;-70
2022/03/01 05:05:40;;;;;;;18.42;10.02;;;;;;;0.95;62.33;102727.56;4989671;28;20070;-71
2022/03/01 05:08:07;;;;;;;17.15;9.68;;;;;;;0.95;62.42;102736.22;4983293;28;20063;-70
2022/03/01 05:10:35;;;;;;;17.55;10.05;;;;;;;0.96;62.38;102734.53;4989144;28;20042;-70
2022/03/01 05:13:07;;;;;;;18.35;9.90;;;;;;;0.95;62.34;102733.63;4996449;28;20321;-69
2022/03/01 05:15:34;;;;;;;14.95;9.65;;;;;;;0.95;62.29;102736.22;4988321;28;20031;-69
2022/03/01 05:18:01;;;;;;;16.75;9.65;;;;;;;0.96;62.42;102735.41;4992490;28;20047;-69
2022/03/01 05:20:29;;;;;;;20.60;10.75;;;;;;;0.98;62.25;102733.75;4991882;28;20047;-70
2022/03/01 05:22:55;;;;;;;17.80;10.80;;;;;;;0.99;62.35;102738.13;4994481;28;20047;-71
2022/03/01 05:25:24;;;;;;;20.30;9.98;;;;;;;1.00;62.47;102729.53;4993469;28;20078;-69
2022/03/01 05:27:53;;;;;;;18.20;10.18;;;;;;;1.02;62.35;102733.03;4994660;28;20179;-69
2022/03/01 05:30:22;;;;;;;18.10;9.98;;;;;;;1.02;62.44;102727.84;4984835;28;20049;-70
2022/03/01 05:32:51;;;;;;;18.67;10.05;;;;;;;1.01;62.53;102727.78;4988365;28;20039;-71
2022/03/01 05:35:23;;;;;;;17.83;9.90;;;;;;;0.98;62.42;102720.78;4991783;28;20127;-70
2022/03/01 05:37:52;;;;;;;26.63;9.95;;;;;;;0.96;62.42;102721.56;4996402;28;20490;-69
2022/03/01 05:40:26;;;;;;;20.70;10.57;;;;;;;0.92;62.43;102713.63;4993093;28;20098;-68
2022/03/01 05:42:54;;;;;;;22.63;9.35;;;;;;;0.90;62.49;102711.81;4995115;28;20047;-69
2022/03/01 05:45:22;;;;;;;19.33;10.38;;;;;;;0.88;62.40;102709.13;4992582;28;20085;-68
2022/03/01 05:47:49;;;;;;;19.13;9.95;;;;;;;0.88;62.35;102703.06;4994136;28;20047;-69
2022/03/01 05:50:18;;;;;;;17.83;10.57;;;;;;;0.89;62.68;102708.31;4986680;28;20047;-69
2022/03/01 05:52:50;;;;;;;21.38;11.27;;;;;;;0.90;62.59;102698.81;4987559;28;20053;-69
2022/03/01 05:55:18;;;;;;;19.52;10.90;;;;;;;0.91;62.80;102703.19;4988718;28;20105;-69
2022/03/01 05:57:46;;;;;;;25.00;12.30;;;;;;;0.93;62.83;102706.69;4997397;28;20136;-69
2022/03/01 06:00:17;;;;;;;19.67;11.15;;;;;;;0.95;62.84;102710.25;4992230;28;20112;-69
2022/03/01 06:02:47;;;;;;;19.42;11.30;;;;;;;0.96;62.87;102705.97;4988403;28;20050;-69
2022/03/01 06:05:17;;;;;;;19.20;11.02;;;;;;;0.94;62.74;102703.28;4990874;28;20046;-69
2022/03/01 06:07:44;;;;;;;21.40;10.90;;;;;;;0.96;63.14;102699.03;4996786;28;20066;-69
2022/03/01 06:10:12;;;;;;;18.55;11.43;;;;;;;0.98;62.95;102697.41;4990975;28;20511;-70
2022/03/01 06:12:40;;;;;;;18.75;11.60;;;;;;;1.01;63.11;102697.53;4984532;28;20051;-69
2022/03/01 06:15:09;;;;;;;18.55;11.13;;;;;;;1.05;63.20;102698.53;4989141;28;20042;-70
2022/03/01 06:17:37;;;;;;;22.83;11.43;;;;;;;1.08;62.99;102703.81;4996840;28;20487;-70
2022/03/01 06:20:09;;;;;;;18.95;11.30;;;;;;;1.11;62.73;102709.16;4986578;28;20162;-70
2022/03/01 06:22:38;;;;;;;24.02;11.50;;;;;;;1.13;63.14;102707.50;4979709;28;20739;-70
2022/03/01 06:25:10;;;;;;;18.00;11.15;;;;;;;1.17;62.99;102713.69;4987245;28;20047;-70
2022/03/01 06:27:39;;;;;;;20.73;11.73;;;;;;;1.19;62.92;102709.44;4982706;28;20053;-70
2022/03/01 06:30:08;;;;;;;26.95;12.93;;;;;;;1.23;62.96;102708.72;4984862;28;20042;-70
2022/03/01 06:32:35;;;;;;;26.25;11.77;;;;;;;1.27;62.96;102707.16;4985546;28;20047;-70
2022/03/01 06:35:04;;;;;;;23.70;11.77;;;;;;;1.33;63.29;102708.25;4988823;28;20043;-69
2022/03/01 06:37:40;;;;;;;19.00;10.57;;;;;;;1.38;63.00;102713.63;4987443;28;20031;-70
2022/03/01 06:40:08;;;;;;;20.35;11.38;;;;;;;1.39;62.87;102700.69;4994254;28;20563;-69
2022/03/01 06:42:35;;;;;;;20.15;12.57;;;;;;;1.44;63.03;102702.56;4990924;28;20130;-69
2022/03/01 06:45:03;;;;;;;20.05;12.05;;;;;;;1.47;62.84;102703.59;4991427;28;20042;-69
2022/03/01 06:47:30;;;;;;;18.73;10.52;;;;;;;1.50;62.84;102708.88;4987989;28;20043;-71
2022/03/01 06:49:57;;;;;;;18.55;10.55;;;;;;;1.56;62.75;102705.63;4980765;28;20073;-70
2022/03/01 06:52:24;;;;;;;19.02;11.00;;;;;;;1.61;62.83;102711.91;4989508;28;20054;-70
2022/03/01 06:54:52;;;;;;;32.65;10.82;;;;;;;1.69;62.74;102712.16;4989839;28;20046;-70
2022/03/01 06:57:18;;;;;;;19.30;10.90;;;;;;;1.76;62.59;102721.97;4997662;28;20932;-70
2022/03/01 06:59:45;;;;;;;26.55;11.02;;;;;;;1.82;62.46;102719.59;4984632;28;20134;-70
2022/03/01 07:02:12;;;;;;;17.63;10.45;;;;;;;1.88;62.47;102721.53;4987652;28;20046;-71
2022/03/01 07:04:40;;;;;;;20.45;10.20;;;;;;;1.93;62.32;102720.00;4982904;28;20053;-70
2022/03/01 07:07:08;;;;;;;17.58;10.07;;;;;;;1.98;62.17;102733.16;4990735;28;20059;-71
2022/03/01 07:09:35;;;;;;;17.23;10.10;;;;;;;2.00;62.11;102732.38;4991423;28;20143;-70
2022/03/01 07:12:03;;;;;;;17.48;9.43;;;;;;;2.05;61.84;102731.63;4989520;28;20041;-71
2022/03/01 07:14:30;;;;;;;18.92;10.23;;;;;;;2.10;61.98;102732.69;4988454;28;20929;-71
2022/03/01 07:16:57;;;;;;;17.63;9.48;;;;;;;2.16;61.65;102735.50;4993577;28;20471;-71
2022/03/01 07:19:25;;;;;;;16.38;9.43;;;;;;;2.21;61.62;102740.88;4989230;28;20231;-69
2022/03/01 07:21:52;;;;;;;18.40;9.82;;;;;;;2.30;61.24;102746.38;4985179;28;20043;-70
2022/03/01 07:24:19;;;;;;;16.65;9.77;;;;;;;2.44;61.08;102739.06;4981176;28;20051;-70
2022/03/01 07:26:47;;;;;;;17.02;9.52;;;;;;;2.64;60.71;102753.66;4985513;28;20133;-70
2022/03/01 07:29:14;;;;;;;15.63;9.77;;;;;;;2.83;60.55;102746.44;4974471;28;20094;-69
2022/03/01 07:31:41;;;;;;;36.10;18.08;;;;;;;2.93;60.37;102755.41;4987013;28;20038;-70
2022/03/01 07:34:08;;;;;;;25.50;13.45;;;;;;;3.05;60.08;102748.00;4986572;28;20039;-71
2022/03/01 07:36:35;;;;;;;23.90;13.88;;;;;;;3.14;59.98;102743.91;4984474;28;20043;-70
2022/03/01 07:39:03;;;;;;;39.33;21.50;;;;;;;3.22;59.77;102752.84;4985999;28;20043;-68
2022/03/01 07:41:30;;;;;;;57.53;47.83;;;;;;;3.28;59.66;102746.94;4986836;28;20523;-70
2022/03/01 07:43:58;;;;;;;19.35;13.85;;;;;;;3.38;59.60;102749.88;4991002;28;20042;-70
2022/03/01 07:46:25;;;;;;;24.52;15.38;;;;;;;3.48;59.10;102753.63;4985957;28;20126;-71
2022/03/01 07:48:52;;;;;;;23.70;15.60;;;;;;;3.63;58.74;102760.16;4985250;28;20050;-71
2022/03/01 07:51:19;;;;;;;19.13;13.52;;;;;;;3.79;58.50;102756.25;4986274;28;20110;-70
2022/03/01 07:53:51;;;;;;;21.73;13.93;;;;;;;3.95;57.95;102753.22;4988069;28;20057;-70
2022/03/01 07:56:21;;;;;;;31.42;23.50;;;;;;;4.11;57.75;102762.38;4986524;28;20522;-71
2022/03/01 07:58:50;;;;;;;27.52;17.88;;;;;;;4.22;57.65;102762.69;4984634;28;20917;-71
2022/03/01 08:01:18;;;;;;;47.83;30.67;;;;;;;4.33;57.40;102766.44;4987431;28;20039;-70
2022/03/01 08:03:48;;;;;;;250.88;120.15;;;;;;;4.42;57.17;102763.19;4991156;28;20055;-71
2022/03/01 08:06:16;;;;;;;45.28;25.52;;;;;;;4.51;57.02;102766.03;4980851;28;20503;-71
2022/03/01 08:08:43;;;;;;;24.17;13.15;;;;;;;4.59;56.88;102773.19;4988571;28;20054;-70
2022/03/01 08:11:11;;;;;;;16.42;11.73;;;;;;;4.68;56.89;102773.41;4995014;28;20043;-71
2022/03/01 08:13:42;;;;;;;18.20;11.00;;;;;;;4.77;56.67;102776.28;4988712;28;20133;-71
2022/03/01 08:16:09;;;;;;;18.60;10.63;;;;;;;4.81;56.49;102777.25;4983771;28;20052;-70
2022/03/01 08:18:37;;;;;;;18.67;13.25;;;;;;;4.85;56.47;102775.59;4988510;28;20125;-72
2022/03/01 08:21:06;;;;;;;20.88;9.77;;;;;;;4.86;55.95;102756.44;4980199;28;20047;-69
2022/03/01 08:23:34;;;;;;;17.10;9.63;;;;;;;4.84;56.14;102752.91;4985977;28;20042;-70
2022/03/01 08:26:04;;;;;;;19.23;9.63;;;;;;;4.82;56.11;102755.50;4988420;28;20046;-71
2022/03/01 08:28:32;;;;;;;18.88;9.80;;;;;;;4.80;56.10;102767.63;4987650;28;20129;-71
2022/03/01 08:31:00;;;;;;;20.05;12.77;;;;;;;4.77;55.98;102758.00;4984241;28;20122;-70
2022/03/01 08:33:27;;;;;;;24.15;16.38;;;;;;;4.78;56.12;102761.47;4987028;28;20055;-70
2022/03/01 08:35:55;;;;;;;24.50;12.40;;;;;;;4.77;56.02;102764.94;4988179;28;20494;-71
2022/03/01 08:38:25;;;;;;;15.20;9.57;;;;;;;4.78;56.01;102767.56;4988430;28;20184;-71
2022/03/01 08:40:53;;;;;;;28.10;11.07;;;;;;;4.80;55.88;102763.28;4988282;28;20050;-71
2022/03/01 08:43:22;;;;;;;18.65;10.23;;;;;;;4.86;55.72;102756.44;4987771;28;20050;-71
2022/03/01 08:45:50;;;;;;;18.50;10.20;;;;;;;4.93;55.80;102763.56;4987761;28;20062;-69
2022/03/01 08:48:18;;;;;;;17.25;9.73;;;;;;;5.06;55.59;102767.34;4988751;28;20130;-71
2022/03/01 08:50:46;;;;;;;14.60;9.13;;;;;;;5.18;55.47;102769.41;5003960;28;20049;-68
2022/03/01 08:53:19;;;;;;;16.10;8.50;;;;;;;5.29;54.88;102768.78;5002992;28;20098;-70
2022/03/01 08:55:48;;;;;;;14.30;8.88;;;;;;;5.36;54.79;102769.81;4980785;28;20046;-70
2022/03/01 08:58:15;;;;;;;19.55;9.30;;;;;;;5.44;54.61;102768.25;4988555;28;20046;-70
2022/03/01 09:00:43;;;;;;;14.30;9.20;;;;;;;5.50;54.60;102770.09;4987385;28;20047;-69
2022/03/01 09:03:10;;;;;;;16.67;9.00;;;;;;;5.57;54.15;102760.66;4987140;28;20054;-69
2022/03/01 09:05:58;;;;;;;19.77;10.15;;;;;;;5.61;54.35;102754.63;4989013;28;20047;-69
2022/03/01 09:08:30;;;;;;;18.85;9.15;;;;;;;5.67;54.06;102760.00;4981418;28;20056;-70
2022/03/01 09:10:57;;;;;;;18.10;9.10;;;;;;;5.70;53.88;102761.78;4987309;28;20122;-71
2022/03/01 09:13:26;;;;;;;21.80;10.02;;;;;;;5.73;53.70;102762.72;4977856;28;20054;-70
2022/03/01 09:15:54;;;;;;;15.13;8.70;;;;;;;5.77;53.51;102765.44;4986206;28;20047;-68
2022/03/01 09:18:22;;;;;;;20.42;9.48;;;;;;;5.80;53.35;102768.13;4986514;28;20073;-70
2022/03/01 09:20:49;;;;;;;13.88;8.15;;;;;;;5.87;53.43;102772.63;4975720;28;20134;-70
2022/03/01 09:23:17;;;;;;;14.85;9.60;;;;;;;5.94;53.52;102777.13;4986219;28;20046;-70
2022/03/01 09:25:44;;;;;;;26.27;9.90;;;;;;;6.00;53.39;102777.25;4981488;28;20074;-70
2022/03/01 09:28:11;;;;;;;15.60;9.13;;;;;;;6.08;53.38;102787.03;4987518;28;20602;-70
2022/03/01 09:30:38;;;;;;;19.95;9.07;;;;;;;6.13;53.32;102788.88;4986465;28;20050;-70
2022/03/01 09:33:05;;;;;;;17.23;9.95;;;;;;;6.19;52.91;102793.34;4980767;28;20289;-70
2022/03/01 09:35:32;;;;;;;15.77;9.65;;;;;;;6.26;53.12;102792.59;4984283;28;20054;-71
2022/03/01 09:37:59;;;;;;;22.55;11.80;;;;;;;6.35;52.95;102798.00;4983187;28;20126;-71
2022/03/01 09:40:26;;;;;;;17.40;10.30;;;;;;;6.44;52.81;102792.06;4989669;28;20045;-72
2022/03/01 09:42:54;;;;;;;17.98;10.60;;;;;;;6.58;52.43;102797.56;4981081;28;20135;-71
2022/03/01 09:45:22;;;;;;;16.33;10.35;;;;;;;6.68;52.54;102794.25;4982519;28;20110;-72
2022/03/01 09:47:52;;;;;;;17.83;12.85;;;;;;;6.81;52.30;102797.94;4982564;28;20233;-71
2022/03/01 09:50:27;;;;;;;17.30;11.05;;;;;;;6.94;51.60;102793.78;4984848;28;20735;-71
2022/03/01 09:52:56;;;;;;;19.27;10.45;;;;;;;7.04;51.39;102789.56;4985607;28;20050;-70
2022/03/01 09:55:25;;;;;;;13.88;9.20;;;;;;;7.20;51.48;102787.19;4985010;28;20663;-71
2022/03/01 09:57:56;;;;;;;14.25;9.50;;;;;;;7.33;50.42;102791.75;4985446;28;20046;-70
2022/03/01 10:00:25;;;;;;;16.65;9.40;;;;;;;7.41;50.58;102790.13;4986899;28;20057;-71
2022/03/01 10:02:58;;;;;;;26.25;10.55;;;;;;;7.61;49.86;102779.91;4988557;28;20053;-71
2022/03/01 10:05:39;;;;;;;17.85;9.48;;;;;;;7.69;49.54;102777.34;4988380;28;20047;-72
2022/03/01 10:08:13;;;;;;;23.15;9.85;;;;;;;7.73;49.07;102771.28;4987280;28;20050;-71
2022/03/01 10:10:45;;;;;;;18.73;9.75;;;;;;;7.82;48.79;102770.53;4987103;28;20043;-72
2022/03/01 10:13:20;;;;;;;15.38;9.90;;;;;;;7.88;48.71;102770.59;4987589;28;20471;-73
2022/03/01 10:15:51;;;;;;;16.13;9.88;;;;;;;8.05;48.82;102770.78;4986420;28;20058;-73
2022/03/01 10:18:18;;;;;;;14.50;9.00;;;;;;;8.07;48.27;102778.69;4991358;28;20035;-71
2022/03/01 10:20:46;;;;;;;25.33;11.35;;;;;;;8.21;47.98;102776.19;4989086;28;20050;-73
2022/03/01 10:23:22;;;;;;;16.65;11.43;;;;;;;8.34;48.06;102783.34;4991639;28;20054;-73
2022/03/01 10:25:49;;;;;;;19.65;10.20;;;;;;;8.47;47.84;102767.72;5008833;28;20117;-72
2022/03/01 10:28:16;;;;;;;17.95;9.20;;;;;;;8.53;46.71;102767.78;5008294;28;20042;-73
2022/03/01 10:30:44;;;;;;;32.10;15.10;;;;;;;8.48;47.02;102767.75;5007392;28;20041;-73
2022/03/01 10:33:16;;;;;;;20.35;10.63;;;;;;;8.45;47.46;102779.94;5003689;28;20132;-72
2022/03/01 10:35:58;;;;;;;16.77;9.73;;;;;;;8.38;47.89;102786.88;5008458;28;20058;-72
2022/03/01 10:38:25;;;;;;;15.75;10.60;;;;;;;8.32;48.10;102790.34;4999124;28;20049;-72
2022/03/01 10:40:58;;;;;;;21.73;9.60;;;;;;;8.28;47.97;102788.56;5023556;28;20418;-73
2022/03/01 10:43:28;;;;;;;19.85;9.90;;;;;;;8.24;48.43;102795.50;5007205;28;20047;-73
2022/03/01 10:45:56;;;;;;;15.55;8.95;;;;;;;8.23;48.50;102800.75;5007749;28;20145;-72
2022/03/01 10:48:33;;;;;;;18.33;10.07;;;;;;;8.21;48.95;102797.22;5003497;28;20043;-72
2022/03/01 10:51:10;;;;;;;15.43;10.25;;;;;;;8.22;49.08;102799.88;4997733;28;20394;-71
2022/03/01 10:53:45;;;;;;;17.35;12.25;;;;;;;8.21;49.02;102791.97;4999976;28;20118;-71
2022/03/01 10:56:15;;;;;;;18.73;11.27;;;;;;;8.15;48.77;102791.91;5002546;28;20413;-74
2022/03/01 10:58:44;;;;;;;18.48;10.75;;;;;;;8.11;48.68;102785.75;5005451;28;20126;-71
2022/03/01 11:01:12;;;;;;;17.55;9.57;;;;;;;8.12;48.81;102773.47;5007692;28;20149;-71
2022/03/01 11:03:40;;;;;;;21.38;9.55;;;;;;;8.16;48.78;102772.66;5007308;28;20043;-70
2022/03/01 11:06:11;;;;;;;13.65;8.93;;;;;;;8.27;48.55;102768.41;5006893;28;20043;-71
2022/03/01 11:08:41;;;;;;;13.55;8.98;;;;;;;8.42;48.31;102765.03;5005304;28;20117;-70
2022/03/01 11:11:10;;;;;;;18.15;10.13;;;;;;;8.54;48.11;102766.91;5006736;28;20678;-72
2022/03/01 11:13:42;;;;;;;38.47;25.30;;;;;;;8.69;48.47;102766.16;5000933;28;20054;-72
2022/03/01 11:17:01;;;;;;;18.70;9.90;;;;;;;8.88;47.84;102764.59;5006377;28;20113;-71
2022/03/01 11:20:03;;;;;;;16.20;9.70;;;;;;;9.01;46.82;102774.31;5001703;28;20089;-72
2022/03/01 11:22:45;;;;;;;17.50;10.10;;;;;;;9.11;46.79;102779.63;5005986;28;20050;-72
2022/03/01 11:25:25;;;;;;;16.80;9.82;;;;;;;9.23;45.65;102782.34;5005838;28;20038;-72
2022/03/01 11:28:01;;;;;;;16.15;9.82;;;;;;;9.30;46.19;102786.81;5004267;28;20038;-71
2022/03/01 11:30:37;;;;;;;15.98;10.10;;;;;;;9.39;46.37;102782.44;5006284;28;20742;-72